sensor_id;sensor_type;location;lat;lon;timestamp;pressure;altitude;pressure_sealevel;temperature;humidity
4398;BME280;2213;49.720;7.296;2024-03-23T00:53:54;97258.38;;;8.28;100.00
4398;BME280;2213;49.720;7.296;2024-03-23T00:56:22;97249.88;;;8.26;100.00
4398;BME280;2213;49.720;7.296;2024-03-23T00:58:48;97258.31;;;8.22;100.00
4398;BME280;2213;49.720;7.296;2024-03-23T01:01:17;97250.63;;;8.14;100.00
4398;BME280;2213;49.720;7.296;2024-03-23T01:03:47;97244.22;;;8.16;100.00
4398;BME280;2213;49.720;7.296;2024-03-23T01:06:15;97244.88;;;8.25;100.00
4398;BME280;2213;49.720;7.296;2024-03-23T01:08:41;97243.69;;;8.27;100.00
4398;BME280;2213;49.720;7.296;2024-03-23T01:11:09;97246.09;;;8.22;100.00
4398;BME280;2213;49.720;7.296;2024-03-23T01:13:36;97234.09;;;8.28;100.00
4398;BME280;2213;49.720;7.296;2024-03-23T01:16:04;97237.53;;;8.28;100.00
4398;BME280;2213;49.720;7.296;2024-03-23T01:18:32;97232.69;;;8.25;100.00
4398;BME280;2213;49.720;7.296;2024-03-23T01:21:04;97232.31;;;8.28;100.00
4398;BME280;2213;49.720;7.296;2024-03-23T01:23:30;97234.16;;;8.34;100.00
4398;BME280;2213;49.720;7.296;2024-03-23T01:25:58;97232.94;;;8.37;100.00
4398;BME280;2213;49.720;7.296;2024-03-23T01:28:25;97226.34;;;8.34;100.00
4398;BME280;2213;49.720;7.296;2024-03-23T01:30:52;97235.56;;;8.37;100.00
4398;BME280;2213;49.720;7.296;2024-03-23T01:33:19;97232.78;;;8.38;100.00
4398;BME280;2213;49.720;7.296;2024-03-23T01:35:48;97222.78;;;8.42;100.00
4398;BME280;2213;49.720;7.296;2024-03-23T01:38:15;97218.78;;;8.46;100.00
4398;BME280;2213;49.720;7.296;2024-03-23T01:40:43;97218.56;;;8.47;100.00
4398;BME280;2213;49.720;7.296;2024-03-23T01:43:09;97207.97;;;8.49;100.00
4398;BME280;2213;49.720;7.296;2024-03-23T01:45:38;97208.78;;;8.49;100.00
4398;BME280;2213;49.720;7.296;2024-03-23T01:48:05;97198.34;;;8.49;100.00
4398;BME280;2213;49.720;7.296;2024-03-23T01:50:33;97189.91;;;8.47;100.00
4398;BME280;2213;49.720;7.296;2024-03-23T01:53:03;97199.16;;;8.50;100.00
4398;BME280;2213;49.720;7.296;2024-03-23T01:55:33;97198.94;;;8.51;100.00
4398;BME280;2213;49.720;7.296;2024-03-23T01:57:59;97199.56;;;8.53;100.00
4398;BME280;2213;49.720;7.296;2024-03-23T02:00:27;97198.56;;;8.54;100.00
4398;BME280;2213;49.720;7.296;2024-03-23T02:02:54;97195.16;;;8.54;100.00
4398;BME280;2213;49.720;7.296;2024-03-23T02:05:22;97189.16;;;8.53;100.00
4398;BME280;2213;49.720;7.296;2024-03-23T02:07:50;97192.94;;;8.51;100.00
4398;BME280;2213;49.720;7.296;2024-03-23T02:10:20;97190.16;;;8.52;100.00
4398;BME280;2213;49.720;7.296;2024-03-23T02:12:46;97172.75;;;8.59;100.00
4398;BME280;2213;49.720;7.296;2024-03-23T02:15:14;97162.31;;;8.59;100.00
4398;BME280;2213;49.720;7.296;2024-03-23T02:17:40;97169.13;;;8.61;100.00
4398;BME280;2213;49.720;7.296;2024-03-23T02:20:11;97146.69;;;8.59;100.00
4398;BME280;2213;49.720;7.296;2024-03-23T02:22:39;97148.28;;;8.61;100.00
4398;BME280;2213;49.720;7.296;2024-03-23T02:25:08;97154.25;;;8.54;100.00
4398;BME280;2213;49.720;7.296;2024-03-23T02:27:35;97133.03;;;8.57;100.00
4398;BME280;2213;49.720;7.296;2024-03-23T02:30:06;97145.84;;;8.52;100.00
4398;BME280;2213;49.720;7.296;2024-03-23T02:32:33;97143.44;;;8.57;100.00
4398;BME280;2213;49.720;7.296;2024-03-23T02:35:01;97146.28;;;8.63;100.00
4398;BME280;2213;49.720;7.296;2024-03-23T02:37:27;97141.06;;;8.56;100.00
4398;BME280;2213;49.720;7.296;2024-03-23T02:39:55;97131.44;;;8.56;100.00
4398;BME280;2213;49.720;7.296;2024-03-23T02:42:22;97139.06;;;8.65;100.00
4398;BME280;2213;49.720;7.296;2024-03-23T02:44:50;97133.84;;;8.65;100.00
4398;BME280;2213;49.720;7.296;2024-03-23T02:47:17;97125.84;;;8.66;100.00
4398;BME280;2213;49.720;7.296;2024-03-23T02:49:44;97128.69;;;8.78;100.00
4398;BME280;2213;49.720;7.296;2024-03-23T02:52:11;97119.03;;;8.78;100.00
4398;BME280;2213;49.720;7.296;2024-03-23T02:54:38;97124.25;;;8.78;100.00
4398;BME280;2213;49.720;7.296;2024-03-23T02:57:05;97122.66;;;8.77;100.00
4398;BME280;2213;49.720;7.296;2024-03-23T02:59:34;97122.66;;;8.77;100.00
4398;BME280;2213;49.720;7.296;2024-03-23T03:02:00;97123.47;;;8.78;100.00
4398;BME280;2213;49.720;7.296;2024-03-23T03:04:28;97124.06;;;8.86;100.00
4398;BME280;2213;49.720;7.296;2024-03-23T03:06:54;97120.66;;;8.86;100.00
4398;BME280;2213;49.720;7.296;2024-03-23T03:09:22;97112.25;;;8.90;100.00
4398;BME280;2213;49.720;7.296;2024-03-23T03:11:48;97118.44;;;8.96;100.00
4398;BME280;2213;49.720;7.296;2024-03-23T03:14:16;97119.47;;;9.01;100.00
4398;BME280;2213;49.720;7.296;2024-03-23T03:16:44;97129.09;;;9.07;100.00
4398;BME280;2213;49.720;7.296;2024-03-23T03:19:11;97131.53;;;9.09;100.00
4398;BME280;2213;49.720;7.296;2024-03-23T03:21:38;97127.50;;;9.13;100.00
4398;BME280;2213;49.720;7.296;2024-03-23T03:24:07;97138.53;;;9.22;100.00
4398;BME280;2213;49.720;7.296;2024-03-23T03:26:33;97146.19;;;9.30;100.00
4398;BME280;2213;49.720;7.296;2024-03-23T03:29:01;97159.81;;;9.38;100.00
4398;BME280;2213;49.720;7.296;2024-03-23T03:31:28;97175.28;;;9.46;100.00
4398;BME280;2213;49.720;7.296;2024-03-23T03:33:57;97173.88;;;9.50;100.00
4398;BME280;2213;49.720;7.296;2024-03-23T03:36:23;97180.09;;;9.43;100.00
4398;BME280;2213;49.720;7.296;2024-03-23T03:38:51;97203.97;;;9.40;100.00
4398;BME280;2213;49.720;7.296;2024-03-23T03:41:18;97209.38;;;9.25;100.00
4398;BME280;2213;49.720;7.296;2024-03-23T03:43:46;97211.75;;;9.14;100.00
4398;BME280;2213;49.720;7.296;2024-03-23T03:46:12;97223.78;;;9.08;100.00
4398;BME280;2213;49.720;7.296;2024-03-23T03:48:40;97218.16;;;8.98;100.00
4398;BME280;2213;49.720;7.296;2024-03-23T03:51:08;97227.34;;;8.87;100.00
4398;BME280;2213;49.720;7.296;2024-03-23T03:53:35;97230.53;;;8.83;100.00
4398;BME280;2213;49.720;7.296;2024-03-23T03:56:03;97236.94;;;8.74;100.00
4398;BME280;2213;49.720;7.296;2024-03-23T03:58:30;97243.53;;;8.70;100.00
4398;BME280;2213;49.720;7.296;2024-03-23T04:00:57;97250.94;;;8.73;100.00
4398;BME280;2213;49.720;7.296;2024-03-23T04:03:24;97269.78;;;8.68;100.00
4398;BME280;2213;49.720;7.296;2024-03-23T04:05:52;97255.72;;;8.63;100.00
4398;BME280;2213;49.720;7.296;2024-03-23T04:08:21;97259.75;;;8.65;100.00
4398;BME280;2213;49.720;7.296;2024-03-23T04:10:48;97252.88;;;8.57;100.00
4398;BME280;2213;49.720;7.296;2024-03-23T04:13:16;97250.50;;;8.56;100.00
4398;BME280;2213;49.720;7.296;2024-03-23T04:15:43;97255.72;;;8.63;100.00
4398;BME280;2213;49.720;7.296;2024-03-23T04:18:10;97259.75;;;8.65;100.00
4398;BME280;2213;49.720;7.296;2024-03-23T04:20:37;97263.53;;;8.63;100.00
4398;BME280;2213;49.720;7.296;2024-03-23T04:23:04;97262.16;;;8.67;100.00
4398;BME280;2213;49.720;7.296;2024-03-23T04:25:32;97270.19;;;8.72;100.00
4398;BME280;2213;49.720;7.296;2024-03-23T04:28:00;97273.03;;;8.77;100.00
4398;BME280;2213;49.720;7.296;2024-03-23T04:30:26;97278.63;;;8.74;100.00
4398;BME280;2213;49.720;7.296;2024-03-23T04:32:55;97283.44;;;8.70;100.00
4398;BME280;2213;49.720;7.296;2024-03-23T04:35:23;97292.44;;;8.68;100.00
4398;BME280;2213;49.720;7.296;2024-03-23T04:37:51;97287.31;;;8.46;100.00
4398;BME280;2213;49.720;7.296;2024-03-23T04:40:19;97289.63;;;8.28;100.00
4398;BME280;2213;49.720;7.296;2024-03-23T04:42:51;97291.22;;;8.29;100.00
4398;BME280;2213;49.720;7.296;2024-03-23T04:45:19;97298.91;;;8.16;100.00
4398;BME280;2213;49.720;7.296;2024-03-23T04:47:47;97320.88;;;8.28;100.00
4398;BME280;2213;49.720;7.296;2024-03-23T04:50:14;97315.28;;;8.31;100.00
4398;BME280;2213;49.720;7.296;2024-03-23T04:52:42;97314.00;;;8.27;100.00
4398;BME280;2213;49.720;7.296;2024-03-23T04:55:09;97308.94;;;8.19;100.00
4398;BME280;2213;49.720;7.296;2024-03-23T04:57:38;97303.09;;;8.10;100.00
4398;BME280;2213;49.720;7.296;2024-03-23T05:00:08;97311.94;;;8.16;100.00
4398;BME280;2213;49.720;7.296;2024-03-23T05:02:44;97308.47;;;8.09;100.00
4398;BME280;2213;49.720;7.296;2024-03-23T05:05:11;97323.16;;;8.17;100.00
4398;BME280;2213;49.720;7.296;2024-03-23T05:07:40;97330.09;;;8.09;100.00
4398;BME280;2213;49.720;7.296;2024-03-23T05:10:09;97323.66;;;8.05;100.00
4398;BME280;2213;49.720;7.296;2024-03-23T05:12:37;97330.09;;;8.09;100.00
4398;BME280;2213;49.720;7.296;2024-03-23T05:15:06;97345.56;;;8.11;100.00
4398;BME280;2213;49.720;7.296;2024-03-23T05:17:34;97346.50;;;8.03;100.00
4398;BME280;2213;49.720;7.296;2024-03-23T05:20:01;97347.44;;;7.96;100.00
4398;BME280;2213;49.720;7.296;2024-03-23T05:22:28;97345.69;;;7.82;100.00
4398;BME280;2213;49.720;7.296;2024-03-23T05:24:55;97358.47;;;7.77;100.00
4398;BME280;2213;49.720;7.296;2024-03-23T05:27:23;97358.47;;;7.77;100.00
4398;BME280;2213;49.720;7.296;2024-03-23T05:29:49;97348.78;;;7.71;100.00
4398;BME280;2213;49.720;7.296;2024-03-23T05:32:18;97355.13;;;7.83;100.00
4398;BME280;2213;49.720;7.296;2024-03-23T05:34:45;97352.91;;;7.80;100.00
4398;BME280;2213;49.720;7.296;2024-03-23T05:37:12;97359.34;;;7.84;100.00
4398;BME280;2213;49.720;7.296;2024-03-23T05:39:39;97364.19;;;7.87;100.00
4398;BME280;2213;49.720;7.296;2024-03-23T05:42:07;97357.63;;;7.91;100.00
4398;BME280;2213;49.720;7.296;2024-03-23T05:44:34;97368.25;;;7.96;100.00
4398;BME280;2213;49.720;7.296;2024-03-23T05:47:02;97376.22;;;7.88;100.00
4398;BME280;2213;49.720;7.296;2024-03-23T05:49:30;97394.16;;;7.83;100.00
4398;BME280;2213;49.720;7.296;2024-03-23T05:51:57;97393.25;;;7.90;100.00
4398;BME280;2213;49.720;7.296;2024-03-23T05:54:24;97394.53;;;7.80;100.00
4398;BME280;2213;49.720;7.296;2024-03-23T05:56:55;97412.88;;;7.72;100.00
4398;BME280;2213;49.720;7.296;2024-03-23T05:59:21;97426.72;;;7.57;100.00
4398;BME280;2213;49.720;7.296;2024-03-23T06:01:49;97427.16;;;7.61;100.00
4398;BME280;2213;49.720;7.296;2024-03-23T06:04:16;97439.09;;;7.70;100.00
4398;BME280;2213;49.720;7.296;2024-03-23T06:06:45;97432.81;;;7.65;100.00
4398;BME280;2213;49.720;7.296;2024-03-23T06:09:12;97426.50;;;7.74;100.00
4398;BME280;2213;49.720;7.296;2024-03-23T06:11:39;97431.72;;;7.74;100.00
4398;BME280;2213;49.720;7.296;2024-03-23T06:14:06;97425.97;;;7.64;100.00
4398;BME280;2213;49.720;7.296;2024-03-23T06:16:34;97434.59;;;7.64;100.00
4398;BME280;2213;49.720;7.296;2024-03-23T06:19:01;97434.59;;;7.64;100.00
4398;BME280;2213;49.720;7.296;2024-03-23T06:21:30;97436.03;;;7.67;100.00
4398;BME280;2213;49.720;7.296;2024-03-23T06:23:58;97436.59;;;7.62;100.00
4398;BME280;2213;49.720;7.296;2024-03-23T06:26:26;97441.47;;;7.72;100.00
4398;BME280;2213;49.720;7.296;2024-03-23T06:28:53;97449.75;;;7.60;100.00
4398;BME280;2213;49.720;7.296;2024-03-23T06:31:22;97465.19;;;7.62;100.00
4398;BME280;2213;49.720;7.296;2024-03-23T06:33:49;97475.97;;;7.59;100.00
4398;BME280;2213;49.720;7.296;2024-03-23T06:36:16;97488.09;;;7.67;100.00
4398;BME280;2213;49.720;7.296;2024-03-23T06:38:46;97493.28;;;7.67;100.00
4398;BME280;2213;49.720;7.296;2024-03-23T06:41:15;97504.31;;;7.69;100.00
4398;BME280;2213;49.720;7.296;2024-03-23T06:43:42;97507.19;;;7.59;100.00
4398;BME280;2213;49.720;7.296;2024-03-23T06:46:11;97516.88;;;7.65;100.00
4398;BME280;2213;49.720;7.296;2024-03-23T06:48:37;97523.72;;;7.51;100.00
4398;BME280;2213;49.720;7.296;2024-03-23T06:51:05;97522.00;;;7.44;100.00
4398;BME280;2213;49.720;7.296;2024-03-23T06:53:32;97529.34;;;7.40;100.00
4398;BME280;2213;49.720;7.296;2024-03-23T06:56:00;97534.91;;;7.37;100.00
4398;BME280;2213;49.720;7.296;2024-03-23T06:58:28;97535.81;;;7.44;100.00
4398;BME280;2213;49.720;7.296;2024-03-23T07:00:56;97544.59;;;7.43;100.00
4398;BME280;2213;49.720;7.296;2024-03-23T07:03:23;97549.44;;;7.46;100.00
4398;BME280;2213;49.720;7.296;2024-03-23T07:05:52;97546.75;;;7.40;100.00
4398;BME280;2213;49.720;7.296;2024-03-23T07:08:18;97554.56;;;7.40;100.00
4398;BME280;2213;49.720;7.296;2024-03-23T07:10:48;97566.50;;;7.34;100.00
4398;BME280;2213;49.720;7.296;2024-03-23T07:13:15;97558.94;;;7.39;100.00
4398;BME280;2213;49.720;7.296;2024-03-23T07:15:51;97569.47;;;7.46;100.00
4398;BME280;2213;49.720;7.296;2024-03-23T07:18:18;97571.34;;;7.52;100.00
4398;BME280;2213;49.720;7.296;2024-03-23T07:20:54;97572.97;;;7.53;100.00
4398;BME280;2213;49.720;7.296;2024-03-23T07:23:20;97580.94;;;7.66;100.00
4398;BME280;2213;49.720;7.296;2024-03-23T07:25:57;97579.41;;;7.72;100.00
4398;BME280;2213;49.720;7.296;2024-03-23T07:28:23;97585.88;;;7.76;100.00
4398;BME280;2213;49.720;7.296;2024-03-23T07:31:04;97583.25;;;7.76;100.00
4398;BME280;2213;49.720;7.296;2024-03-23T07:33:31;97594.56;;;7.68;100.00
4398;BME280;2213;49.720;7.296;2024-03-23T07:35:59;97599.88;;;7.60;100.00
4398;BME280;2213;49.720;7.296;2024-03-23T07:38:27;97607.31;;;7.63;100.00
4398;BME280;2213;49.720;7.296;2024-03-23T07:41:05;97614.66;;;7.74;100.00
4398;BME280;2213;49.720;7.296;2024-03-23T07:43:34;97630.38;;;7.51;100.00
4398;BME280;2213;49.720;7.296;2024-03-23T07:46:04;97619.69;;;7.61;100.00
4398;BME280;2213;49.720;7.296;2024-03-23T07:48:32;97612.53;;;7.63;100.00
4398;BME280;2213;49.720;7.296;2024-03-23T07:51:01;97602.91;;;7.64;100.00
4398;BME280;2213;49.720;7.296;2024-03-23T07:53:29;97607.50;;;7.76;100.00
4398;BME280;2213;49.720;7.296;2024-03-23T07:56:00;97603.56;;;7.66;100.00
4398;BME280;2213;49.720;7.296;2024-03-23T07:58:29;97616.09;;;7.62;100.00
4398;BME280;2213;49.720;7.296;2024-03-23T08:01:05;97624.06;;;7.60;100.00
4398;BME280;2213;49.720;7.296;2024-03-23T08:03:34;97621.75;;;7.66;100.00
4398;BME280;2213;49.720;7.296;2024-03-23T08:06:13;97621.50;;;7.75;100.00
4398;BME280;2213;49.720;7.296;2024-03-23T08:08:43;97624.16;;;7.67;100.00
4398;BME280;2213;49.720;7.296;2024-03-23T08:11:10;97629.81;;;7.71;100.00
4398;BME280;2213;49.720;7.296;2024-03-23T08:13:40;97628.59;;;7.67;100.00
4398;BME280;2213;49.720;7.296;2024-03-23T08:16:08;97629.03;;;7.70;100.00
4398;BME280;2213;49.720;7.296;2024-03-23T08:18:36;97627.50;;;7.76;100.00
4398;BME280;2213;49.720;7.296;2024-03-23T08:21:04;97635.59;;;7.81;100.00
4398;BME280;2213;49.720;7.296;2024-03-23T08:23:33;97625.19;;;7.81;100.00
4398;BME280;2213;49.720;7.296;2024-03-23T08:26:03;97623.13;;;7.91;100.00
4398;BME280;2213;49.720;7.296;2024-03-23T08:28:31;97641.34;;;7.91;100.00
4398;BME280;2213;49.720;7.296;2024-03-23T08:31:02;97641.59;;;7.81;100.00
4398;BME280;2213;49.720;7.296;2024-03-23T08:33:31;97642.97;;;7.77;100.00
4398;BME280;2213;49.720;7.296;2024-03-23T08:36:00;97640.34;;;7.77;100.00
4398;BME280;2213;49.720;7.296;2024-03-23T08:38:28;97644.03;;;7.83;100.00
4398;BME280;2213;49.720;7.296;2024-03-23T08:40:59;97634.16;;;7.93;100.00
4398;BME280;2213;49.720;7.296;2024-03-23T08:43:30;97628.94;;;7.93;100.00
4398;BME280;2213;49.720;7.296;2024-03-23T08:46:04;97629.38;;;7.96;100.00
4398;BME280;2213;49.720;7.296;2024-03-23T08:48:35;97639.34;;;7.93;100.00
4398;BME280;2213;49.720;7.296;2024-03-23T08:51:03;97638.16;;;7.95;100.00
4398;BME280;2213;49.720;7.296;2024-03-23T08:53:31;97630.72;;;7.92;100.00
4398;BME280;2213;49.720;7.296;2024-03-23T08:55:59;97634.97;;;7.93;100.00
4398;BME280;2213;49.720;7.296;2024-03-23T08:58:29;97630.56;;;8.08;100.00
4398;BME280;2213;49.720;7.296;2024-03-23T09:01:03;97634.47;;;8.19;100.00
4398;BME280;2213;49.720;7.296;2024-03-23T09:03:33;97638.69;;;8.20;100.00
4398;BME280;2213;49.720;7.296;2024-03-23T09:06:02;97651.72;;;8.20;100.00
4398;BME280;2213;49.720;7.296;2024-03-23T09:08:29;97648.38;;;8.26;100.00
4398;BME280;2213;49.720;7.296;2024-03-23T09:10:56;97643.09;;;8.34;100.00
4398;BME280;2213;49.720;7.296;2024-03-23T09:13:23;97651.00;;;8.41;100.00
4398;BME280;2213;49.720;7.296;2024-03-23T09:15:52;97661.13;;;8.50;100.00
4398;BME280;2213;49.720;7.296;2024-03-23T09:18:22;97653.84;;;8.61;100.00
4398;BME280;2213;49.720;7.296;2024-03-23T09:20:50;97668.72;;;8.67;100.00
4398;BME280;2213;49.720;7.296;2024-03-23T09:23:20;97653.97;;;8.74;100.00
4398;BME280;2213;49.720;7.296;2024-03-23T09:25:46;97660.72;;;8.68;100.00
4398;BME280;2213;49.720;7.296;2024-03-23T09:28:14;97659.13;;;8.67;100.00
4398;BME280;2213;49.720;7.296;2024-03-23T09:30:40;97652.41;;;8.79;100.00
4398;BME280;2213;49.720;7.296;2024-03-23T09:33:09;97649.00;;;8.79;100.00
4398;BME280;2213;49.720;7.296;2024-03-23T09:35:37;97637.22;;;8.83;100.00
4398;BME280;2213;49.720;7.296;2024-03-23T09:38:07;97660.88;;;8.81;100.00
4398;BME280;2213;49.720;7.296;2024-03-23T09:40:33;97646.88;;;8.89;100.00
4398;BME280;2213;49.720;7.296;2024-03-23T09:43:01;97652.75;;;8.91;100.00
4398;BME280;2213;49.720;7.296;2024-03-23T09:45:29;97650.69;;;8.86;100.00
4398;BME280;2213;49.720;7.296;2024-03-23T09:47:56;97643.72;;;8.93;100.00
4398;BME280;2213;49.720;7.296;2024-03-23T09:50:23;97668.00;;;8.94;100.00
4398;BME280;2213;49.720;7.296;2024-03-23T09:52:51;97646.16;;;8.95;100.00
4398;BME280;2213;49.720;7.296;2024-03-23T09:55:19;97647.25;;;9.07;100.00
4398;BME280;2213;49.720;7.296;2024-03-23T09:57:47;97643.16;;;9.19;100.00
4398;BME280;2213;49.720;7.296;2024-03-23T10:00:14;97627.31;;;9.21;100.00
4398;BME280;2213;49.720;7.296;2024-03-23T10:02:42;97637.84;;;9.34;100.00
4398;BME280;2213;49.720;7.296;2024-03-23T10:05:20;97631.56;;;9.49;100.00
4398;BME280;2213;49.720;7.296;2024-03-23T10:07:49;97633.41;;;9.55;100.00
4398;BME280;2213;49.720;7.296;2024-03-23T10:10:16;97642.16;;;9.48;100.00
4398;BME280;2213;49.720;7.296;2024-03-23T10:12:47;97642.16;;;9.48;100.00
4398;BME280;2213;49.720;7.296;2024-03-23T10:15:20;97626.34;;;9.49;100.00
4398;BME280;2213;49.720;7.296;2024-03-23T10:17:48;97628.94;;;9.49;100.00
4398;BME280;2213;49.720;7.296;2024-03-23T10:20:20;97616.50;;;9.51;100.00
4398;BME280;2213;49.720;7.296;2024-03-23T10:22:49;97613.94;;;9.58;100.00
4398;BME280;2213;49.720;7.296;2024-03-23T10:25:16;97624.56;;;9.56;100.00
4398;BME280;2213;49.720;7.296;2024-03-23T10:27:43;97594.09;;;9.64;100.00
4398;BME280;2213;49.720;7.296;2024-03-23T10:30:14;97619.34;;;9.56;100.00
4398;BME280;2213;49.720;7.296;2024-03-23T10:32:41;97600.09;;;9.57;100.00
4398;BME280;2213;49.720;7.296;2024-03-23T10:35:18;97609.56;;;9.65;100.00
4398;BME280;2213;49.720;7.296;2024-03-23T10:37:48;97598.34;;;9.65;100.00
4398;BME280;2213;49.720;7.296;2024-03-23T10:40:16;97606.38;;;9.70;100.00
4398;BME280;2213;49.720;7.296;2024-03-23T10:42:44;97603.97;;;9.68;97.38
4398;BME280;2213;49.720;7.296;2024-03-23T10:45:12;97608.16;;;9.63;95.23
4398;BME280;2213;49.720;7.296;2024-03-23T10:47:40;97593.75;;;9.73;95.99
4398;BME280;2213;49.720;7.296;2024-03-23T10:50:09;97596.63;;;9.85;100.00
4398;BME280;2213;49.720;7.296;2024-03-23T10:52:37;97603.69;;;9.91;99.73
4398;BME280;2213;49.720;7.296;2024-03-23T10:55:07;97600.91;;;9.92;95.59
4398;BME280;2213;49.720;7.296;2024-03-23T10:57:44;97601.50;;;9.94;97.07
4398;BME280;2213;49.720;7.296;2024-03-23T11:00:14;97602.09;;;9.96;94.99
4398;BME280;2213;49.720;7.296;2024-03-23T11:02:42;97602.50;;;10.00;93.64
4398;BME280;2213;49.720;7.296;2024-03-23T11:05:31;97593.09;;;9.99;94.90
4398;BME280;2213;49.720;7.296;2024-03-23T11:07:58;97594.69;;;10.00;95.36
4398;BME280;2213;49.720;7.296;2024-03-23T11:10:26;97593.28;;;10.04;94.26
4398;BME280;2213;49.720;7.296;2024-03-23T11:12:55;97599.47;;;9.96;88.07
4398;BME280;2213;49.720;7.296;2024-03-23T11:15:23;97601.88;;;9.91;85.21
4398;BME280;2213;49.720;7.296;2024-03-23T11:18:05;97594.47;;;9.95;85.30
4398;BME280;2213;49.720;7.296;2024-03-23T11:20:35;97591.28;;;9.99;85.44
4398;BME280;2213;49.720;7.296;2024-03-23T11:23:04;97591.69;;;10.03;87.08
4398;BME280;2213;49.720;7.296;2024-03-23T11:25:31;97593.94;;;10.06;88.67
4398;BME280;2213;49.720;7.296;2024-03-23T11:28:11;97603.88;;;9.89;91.93
4398;BME280;2213;49.720;7.296;2024-03-23T11:30:39;97598.66;;;9.89;100.00
4398;BME280;2213;49.720;7.296;2024-03-23T11:33:08;97605.44;;;9.77;100.00
4398;BME280;2213;49.720;7.296;2024-03-23T11:35:37;97614.28;;;9.83;100.00
4398;BME280;2213;49.720;7.296;2024-03-23T11:38:07;97630.75;;;9.83;100.00
4398;BME280;2213;49.720;7.296;2024-03-23T11:40:36;97646.28;;;9.57;100.00
4398;BME280;2213;49.720;7.296;2024-03-23T11:43:05;97652.34;;;9.36;100.00
4398;BME280;2213;49.720;7.296;2024-03-23T11:45:38;97682.41;;;9.11;100.00
4398;BME280;2213;49.720;7.296;2024-03-23T11:48:08;97695.78;;;8.66;100.00
4398;BME280;2213;49.720;7.296;2024-03-23T11:50:38;97688.91;;;7.99;100.00
4398;BME280;2213;49.720;7.296;2024-03-23T11:53:14;97683.00;;;7.91;100.00
4398;BME280;2213;49.720;7.296;2024-03-23T11:55:49;97671.94;;;7.89;100.00
4398;BME280;2213;49.720;7.296;2024-03-23T11:58:20;97666.81;;;8.10;100.00
4398;BME280;2213;49.720;7.296;2024-03-23T12:00:59;97665.03;;;8.10;100.00
4398;BME280;2213;49.720;7.296;2024-03-23T12:03:29;97655.22;;;8.13;100.00
4398;BME280;2213;49.720;7.296;2024-03-23T12:05:58;97650.09;;;8.19;100.00
4398;BME280;2213;49.720;7.296;2024-03-23T12:08:31;97650.19;;;8.26;100.00
4398;BME280;2213;49.720;7.296;2024-03-23T12:11:06;97647.25;;;8.29;100.00
4398;BME280;2213;49.720;7.296;2024-03-23T12:13:35;97651.72;;;8.20;100.00
4398;BME280;2213;49.720;7.296;2024-03-23T12:16:15;97650.09;;;8.19;100.00
4398;BME280;2213;49.720;7.296;2024-03-23T12:18:45;97657.28;;;8.17;100.00
4398;BME280;2213;49.720;7.296;2024-03-23T12:21:13;97648.69;;;8.31;100.00
4398;BME280;2213;49.720;7.296;2024-03-23T12:23:41;97639.16;;;8.38;100.00
4398;BME280;2213;49.720;7.296;2024-03-23T12:26:09;97629.97;;;8.28;100.00
4398;BME280;2213;49.720;7.296;2024-03-23T12:28:37;97631.31;;;8.24;100.00
4398;BME280;2213;49.720;7.296;2024-03-23T12:31:04;97621.88;;;8.23;100.00
4398;BME280;2213;49.720;7.296;2024-03-23T12:33:33;97628.56;;;8.25;100.00
4398;BME280;2213;49.720;7.296;2024-03-23T12:36:00;97622.91;;;8.22;100.00
4398;BME280;2213;49.720;7.296;2024-03-23T12:38:28;97608.63;;;8.32;100.00
4398;BME280;2213;49.720;7.296;2024-03-23T12:40:54;97599.31;;;8.44;100.00
4398;BME280;2213;49.720;7.296;2024-03-23T12:43:22;97597.28;;;8.61;100.00
4398;BME280;2213;49.720;7.296;2024-03-23T12:45:49;97598.59;;;8.72;100.00
4398;BME280;2213;49.720;7.296;2024-03-23T12:48:17;97595.00;;;8.73;100.00
4398;BME280;2213;49.720;7.296;2024-03-23T12:50:44;97586.56;;;8.92;100.00
4398;BME280;2213;49.720;7.296;2024-03-23T12:53:12;97585.06;;;9.04;100.00
4398;BME280;2213;49.720;7.296;2024-03-23T12:55:38;97578.09;;;9.11;100.00
4398;BME280;2213;49.720;7.296;2024-03-23T12:58:06;97563.84;;;9.14;100.00
4398;BME280;2213;49.720;7.296;2024-03-23T13:00:33;97553.50;;;9.27;100.00
4398;BME280;2213;49.720;7.296;2024-03-23T13:03:01;97553.22;;;9.43;100.00
4398;BME280;2213;49.720;7.296;2024-03-23T13:05:27;97551.84;;;9.47;100.00
4398;BME280;2213;49.720;7.296;2024-03-23T13:07:56;97555.50;;;9.59;100.00
4398;BME280;2213;49.720;7.296;2024-03-23T13:10:23;97548.91;;;9.63;100.00
4398;BME280;2213;49.720;7.296;2024-03-23T13:12:50;97546.34;;;9.70;100.00
4398;BME280;2213;49.720;7.296;2024-03-23T13:15:17;97553.97;;;9.65;100.00
4398;BME280;2213;49.720;7.296;2024-03-23T13:17:45;97553.97;;;9.65;100.00
4398;BME280;2213;49.720;7.296;2024-03-23T13:20:12;97555.91;;;9.56;100.00
4398;BME280;2213;49.720;7.296;2024-03-23T13:22:41;97565.22;;;9.37;100.00
4398;BME280;2213;49.720;7.296;2024-03-23T13:25:09;97568.63;;;9.38;100.00
4398;BME280;2213;49.720;7.296;2024-03-23T13:27:37;97564.38;;;9.30;100.00
4398;BME280;2213;49.720;7.296;2024-03-23T13:30:05;97569.59;;;9.30;100.00
4398;BME280;2213;49.720;7.296;2024-03-23T13:32:32;97563.34;;;9.25;100.00
4398;BME280;2213;49.720;7.296;2024-03-23T13:34:59;97568.03;;;9.08;100.00
4398;BME280;2213;49.720;7.296;2024-03-23T13:37:26;97573.03;;;8.82;100.00
4398;BME280;2213;49.720;7.296;2024-03-23T13:39:53;97575.41;;;8.77;100.00
4398;BME280;2213;49.720;7.296;2024-03-23T13:42:22;97586.94;;;8.68;100.00
4398;BME280;2213;49.720;7.296;2024-03-23T13:44:52;97574.41;;;8.56;100.00
4398;BME280;2213;49.720;7.296;2024-03-23T13:47:19;97585.06;;;8.40;100.00
4398;BME280;2213;49.720;7.296;2024-03-23T13:49:53;97592.47;;;8.22;100.00
4398;BME280;2213;49.720;7.296;2024-03-23T13:52:21;97579.88;;;8.26;100.00
4398;BME280;2213;49.720;7.296;2024-03-23T13:54:51;97578.97;;;8.33;100.00
4398;BME280;2213;49.720;7.296;2024-03-23T13:57:18;97567.44;;;8.42;100.00
4398;BME280;2213;49.720;7.296;2024-03-23T13:59:48;97577.44;;;8.39;100.00
4398;BME280;2213;49.720;7.296;2024-03-23T14:02:16;97569.06;;;8.65;100.00
4398;BME280;2213;49.720;7.296;2024-03-23T14:04:42;97557.13;;;8.98;100.00
4398;BME280;2213;49.720;7.296;2024-03-23T14:07:10;97557.03;;;9.13;100.00
4398;BME280;2213;49.720;7.296;2024-03-23T14:09:36;97558.44;;;9.43;100.00
4398;BME280;2213;49.720;7.296;2024-03-23T14:12:04;97563.06;;;9.75;100.00
4398;BME280;2213;49.720;7.296;2024-03-23T14:14:32;97566.53;;;9.89;100.00
4398;BME280;2213;49.720;7.296;2024-03-23T14:17:01;97564.94;;;10.01;100.00
4398;BME280;2213;49.720;7.296;2024-03-23T14:19:27;97562.84;;;9.77;100.00
4398;BME280;2213;49.720;7.296;2024-03-23T14:21:55;97563.22;;;9.74;100.00